METAR Data
IDs: Format: Raw Decoded Include TAF

Data at: 0001 UTC 26 Oct 2021

KFWS 252347Z 00000KT 10SM CLR 28/18 A2992
KFWS 252247Z 10004KT 10SM CLR 31/18 A2991
KFWS 252147Z 11006KT 10SM CLR 31/18 A2991
KFWS 252047Z 10004KT 10SM CLR 31/18 A2992
KFWS 251947Z 00000KT 10SM CLR 31/18 A2994
KFWS 251847Z 13003KT 10SM CLR 29/17 A2996
KFWS 251750Z 00000KT 10SM CLR 28/16 A2998
KFWS 251652Z 09007KT 10SM CLR 27/14 A3000
KFWS 251546Z 10004KT 10SM CLR 25/13 A3002
KFWS 251447Z 00000KT 10SM CLR 22/14 A3002
KFWS 251346Z 00000KT 10SM CLR 18/16 A3000
KFWS 251246Z 00000KT 10SM CLR 16/14 A2998
KFWS 251151Z 00000KT 10SM CLR 14/13 A2996
KFWS 251135Z AUTO 00000KT 10SM CLR 14/12 A2996 RMK AO2 T01450126
KFWS 251115Z AUTO 00000KT 10SM CLR 15/13 A2996 RMK AO2 T01560139
KFWS 251055Z AUTO 00000KT 10SM CLR 15/13 A2996 RMK AO2 T01550140
KFWS 251035Z AUTO 00000KT 10SM CLR 14/12 A2996 RMK AO2 T01440124
KFWS 251015Z AUTO 00000KT 10SM CLR 15/12 A2995 RMK AO2 T01550127
KFWS 250955Z AUTO 00000KT 10SM CLR 16/14 A2995 RMK AO2 T01690144
KFWS 250935Z AUTO 00000KT 10SM CLR 15/12 A2995 RMK AO2 T01550124
KFWS 250915Z AUTO 35003KT 10SM CLR 17/13 A2994 RMK AO2 T01700135
KFWS 250855Z AUTO 36003KT 10SM CLR 17/13 A2994 RMK AO2 T01710137
KFWS 250835Z AUTO 00000KT 10SM CLR 17/13 A2994 RMK AO2 T01800137
KFWS 250815Z AUTO 36003KT 10SM CLR 17/13 A2994 RMK AO2 T01800135
KFWS 250755Z AUTO 36004KT 10SM CLR 18/13 A2994 RMK AO2 T01850132
KFWS 250735Z AUTO 00000KT 10SM CLR 19/13 A2994 RMK AO2 T01920133
KFWS 250715Z AUTO 01003KT 10SM CLR 19/13 A2993 RMK AO2 T01950133
KFWS 250655Z AUTO 02003KT 10SM CLR 20/13 A2992 RMK AO2 T02000137
KFWS 250635Z AUTO 02004KT 10SM CLR 20/13 A2993 RMK AO2 T02000141
KFWS 250615Z AUTO 01006KT 10SM CLR 19/16 A2992 RMK AO2 T01930169
KFWS 250555Z AUTO 36005KT 10SM CLR 20/18 A2992 RMK AO2 T02040182
KFWS 250535Z AUTO 03003KT 10SM CLR 21/18 A2992 RMK AO2 T02100185
KFWS 250515Z AUTO 03003KT 10SM CLR 21/18 A2992 RMK AO2 T02160189
KFWS 250455Z AUTO 02004KT 10SM CLR 21/18 A2991 RMK AO2 T02170191
KFWS 250435Z AUTO 08003KT 10SM CLR 21/18 A2990 RMK AO2 T02150188
KFWS 250415Z AUTO 16006KT 10SM SCT050 21/17 A2990 RMK AO2 T02130178
KFWS 250355Z AUTO 00000KT 10SM CLR 23/18 A2990 RMK AO2 T02380189
KFWS 250335Z AUTO 25003KT 10SM CLR 24/19 A2989 RMK AO2 T02450193
KFWS 250315Z AUTO 29003KT 10SM CLR 25/18 A2989 RMK AO2 T02480191
KFWS 250255Z AUTO 27006KT 10SM CLR 25/19 A2988 RMK AO2 T02480195
KFWS 250235Z AUTO 31006KT 10SM CLR 24/19 A2987 RMK AO2 T02450195
KFWS 250215Z AUTO 18005KT 10SM CLR 25/19 A2984 RMK AO2 T02480192
KFWS 250155Z AUTO 17007KT 10SM CLR 25/19 A2982 RMK AO2 T02480194
KFWS 250135Z AUTO 16007KT 10SM CLR 25/19 A2982 RMK AO2 T02500192
KFWS 250115Z AUTO 16009KT 10SM CLR 25/19 A2981 RMK AO2 T02530195
KFWS 250055Z AUTO 16007KT 10SM CLR 25/19 A2980 RMK AO2 T02560195
KFWS 242346Z 16007KT 10SM CLR 27/19 A2980
KFWS 242248Z 17015KT 10SM FEW030 29/19 A2978
KFWS 242148Z 17009KT 10SM FEW030 30/19 A2979
KFWS 242048Z 17014G18KT 10SM SCT030 29/19 A2978
KFWS 241952Z 16013G19KT 10SM SCT034 29/19 A2979
KFWS 241850Z 1900916KT 10SM BKN029 29/20 A2981
KFWS 241755Z 18012G20KT 10SM BKN027 BKN035 27/20 A2982
KFWS 241653Z 17015G21KT 10SM BKN020 BKN028 26/19 A2985
KFWS 241549Z 17012G18KT 10SM BKN016 25/20 A2987
KFWS 241449Z 15010KT 10SM BKN012 23/19 A2987
KFWS 241346Z 16008KT 10SM BKN027 22/19 A2986
KFWS 241248Z 19007G14KT 10SM OVC017 21/19 A2985